Time;durP1;ratioP1;P1;durP2;ratioP2;P2;SDS_P1;SDS_P2;PMS_P1;PMS_P2;Temp;Humidity;BMP_temperature;BMP_pressure;BME280_temperature;BME280_humidity;BME280_pressure;Samples;Min_cycle;Max_cycle;Signal;HPM_P1;HPM_P2
2024/01/18 00:01:32;;;;;;;30.70;15.90;;;-1.20;99.90;;;;;;5013593;28;20482;-76
2024/01/18 00:03:59;;;;;;;29.20;15.25;;;-1.20;99.90;;;;;;5032597;28;20079;-75
2024/01/18 00:06:25;;;;;;;22.75;14.13;;;-1.20;99.90;;;;;;5043323;28;20055;-76
2024/01/18 00:08:50;;;;;;;26.30;14.50;;;-0.70;99.90;;;;;;5033278;28;20108;-76
2024/01/18 00:11:16;;;;;;;24.17;13.52;;;-2.70;99.90;;;;;;5031411;28;20053;-76
2024/01/18 00:13:43;;;;;;;24.75;13.80;;;-1.30;99.90;;;;;;5014793;28;20401;-75
2024/01/18 00:16:09;;;;;;;24.33;13.60;;;-1.30;99.90;;;;;;5030883;28;20048;-76
2024/01/18 00:18:34;;;;;;;24.58;14.15;;;-1.40;99.90;;;;;;5031635;28;20033;-76
2024/01/18 00:21:00;;;;;;;27.15;14.55;;;-1.40;99.90;;;;;;5031662;28;20041;-75
2024/01/18 00:23:26;;;;;;;24.58;13.75;;;-1.40;99.90;;;;;;5014993;28;20045;-76
2024/01/18 00:25:52;;;;;;;22.25;13.00;;;-1.40;99.90;;;;;;5031300;28;20033;-76
2024/01/18 00:28:17;;;;;;;22.25;11.85;;;-1.30;99.90;;;;;;5030922;28;20053;-76
2024/01/18 00:30:43;;;;;;;19.23;12.15;;;-1.30;99.90;;;;;;5030919;28;20038;-75
2024/01/18 00:33:09;;;;;;;17.27;10.77;;;-1.30;99.90;;;;;;5030714;28;20485;-75
2024/01/18 00:35:34;;;;;;;20.50;10.20;;;-1.30;99.90;;;;;;5030573;28;20095;-75
2024/01/18 00:38:00;;;;;;;16.88;9.30;;;-1.30;99.90;;;;;;5030861;28;20037;-76
2024/01/18 00:40:26;;;;;;;16.48;9.32;;;-1.30;99.90;;;;;;5030080;28;20055;-75
2024/01/18 00:42:51;;;;;;;16.27;8.57;;;-1.30;99.90;;;;;;5040443;28;20405;-76
2024/01/18 00:45:17;;;;;;;16.88;7.85;;;-1.00;99.90;;;;;;5029430;28;20379;-76
2024/01/18 00:47:42;;;;;;;16.98;8.27;;;-1.30;99.90;;;;;;5031760;28;20073;-76
2024/01/18 00:50:08;;;;;;;20.52;8.88;;;-1.30;99.90;;;;;;5014779;28;20048;-76
2024/01/18 00:52:34;;;;;;;15.80;7.97;;;-0.20;99.90;;;;;;5023178;22;20125;-77
2024/01/18 00:54:59;;;;;;;15.50;7.85;;;-1.30;99.90;;;;;;4974081;28;20033;-78
2024/01/18 00:57:30;;;;;;;14.90;7.50;;;-1.40;99.90;;;;;;4989592;28;20038;-77
2024/01/18 00:59:57;;;;;;;17.95;7.88;;;-1.10;99.90;;;;;;4985889;28;20038;-77
2024/01/18 01:02:24;;;;;;;14.25;7.88;;;-1.40;99.90;;;;;;4985170;28;20046;-77
2024/01/18 01:04:55;;;;;;;14.27;7.88;;;-1.30;99.90;;;;;;4983485;28;20058;-77
2024/01/18 01:07:22;;;;;;;15.68;7.90;;;-1.20;99.90;;;;;;4999900;28;20046;-78
2024/01/18 01:09:48;;;;;;;18.25;7.88;;;0.10;99.90;;;;;;4997311;28;20037;-78
2024/01/18 01:12:16;;;;;;;15.23;7.68;;;-1.30;99.90;;;;;;4981341;28;20482;-78
2024/01/18 01:14:42;;;;;;;16.67;7.85;;;-1.20;99.90;;;;;;4979207;28;20030;-78
2024/01/18 01:17:09;;;;;;;15.73;7.13;;;-1.30;99.90;;;;;;4971091;28;20037;-77
2024/01/18 01:19:36;;;;;;;14.50;7.45;;;-1.20;99.90;;;;;;4979048;28;20413;-78
2024/01/18 01:22:03;;;;;;;15.40;8.18;;;-1.20;99.90;;;;;;4995359;28;20380;-78
2024/01/18 01:24:29;;;;;;;15.98;7.45;;;-1.20;99.90;;;;;;4969686;28;20048;-78
2024/01/18 01:26:56;;;;;;;16.75;7.35;;;-0.80;99.90;;;;;;4974880;28;20080;-78
2024/01/18 01:29:25;;;;;;;13.40;6.72;;;-1.10;99.90;;;;;;4974275;28;20042;-77
2024/01/18 01:31:51;;;;;;;15.23;6.80;;;-1.30;99.90;;;;;;4982268;28;20034;-77
2024/01/18 01:34:17;;;;;;;18.83;7.28;;;-1.40;99.90;;;;;;4994226;28;20097;-78
2024/01/18 01:36:43;;;;;;;15.90;6.45;;;-1.40;99.90;;;;;;4980353;28;20073;-78
2024/01/18 01:39:10;;;;;;;12.50;6.60;;;0.40;99.90;;;;;;4977938;28;20471;-77
2024/01/18 01:41:36;;;;;;;13.88;6.60;;;-1.20;99.90;;;;;;4978436;28;20030;-78
2024/01/18 01:44:02;;;;;;;13.32;6.28;;;-0.20;99.90;;;;;;4972959;28;20379;-78
2024/01/18 01:46:29;;;;;;;10.55;6.07;;;-1.00;99.90;;;;;;4978297;28;20133;-78
2024/01/18 01:49:01;;;;;;;12.85;6.25;;;-1.20;99.90;;;;;;4981226;28;20525;-78
2024/01/18 01:51:41;;;;;;;12.18;6.20;;;-1.30;99.90;;;;;;4979030;28;20124;-78
2024/01/18 01:54:08;;;;;;;13.15;6.43;;;-1.10;99.90;;;;;;4992895;28;20045;-78
2024/01/18 01:56:36;;;;;;;11.45;5.78;;;-1.10;99.90;;;;;;4987032;28;20046;-78
2024/01/18 01:59:06;;;;;;;11.82;6.15;;;-1.20;99.90;;;;;;4993199;28;20038;-78
2024/01/18 02:01:32;;;;;;;10.30;5.88;;;-1.10;99.90;;;;;;4990626;28;20060;-78
2024/01/18 02:03:58;;;;;;;10.75;5.22;;;-1.10;99.90;;;;;;4973008;28;20038;-78
2024/01/18 02:06:24;;;;;;;11.00;5.55;;;-1.20;99.90;;;;;;4992738;28;20042;-78
2024/01/18 02:08:50;;;;;;;12.05;5.65;;;-1.20;99.90;;;;;;4984210;28;20037;-78
2024/01/18 02:11:16;;;;;;;9.70;5.32;;;-1.50;99.90;;;;;;4984641;28;20494;-78
2024/01/18 02:13:42;;;;;;;10.73;5.38;;;-0.60;99.90;;;;;;5011116;28;20733;-78
2024/01/18 02:16:09;;;;;;;12.15;5.38;;;-1.20;99.90;;;;;;4992353;28;20038;-78
2024/01/18 02:18:35;;;;;;;12.02;5.28;;;-2.00;99.90;;;;;;4990304;28;20046;-78
2024/01/18 02:21:03;;;;;;;10.68;5.32;;;-1.30;99.90;;;;;;4981373;28;20056;-78
2024/01/18 02:23:31;;;;;;;11.45;4.93;;;-1.00;99.90;;;;;;4995844;28;20041;-78
2024/01/18 02:25:56;;;;;;;10.82;4.78;;;-1.40;99.90;;;;;;5013795;28;20049;-79
2024/01/18 02:28:22;;;;;;;12.07;4.95;;;-1.30;99.90;;;;;;5007199;28;20034;-78
2024/01/18 02:30:48;;;;;;;13.23;4.90;;;;;;;;;;4991237;28;20387;-78
2024/01/18 02:33:14;;;;;;;13.05;4.82;;;-1.30;99.90;;;;;;4975084;28;20404;-78
2024/01/18 02:35:39;;;;;;;7.78;4.88;;;-1.40;99.90;;;;;;4992180;28;20046;-78
2024/01/18 02:38:05;;;;;;;14.38;5.13;;;-1.40;99.90;;;;;;5010853;28;20053;-78
2024/01/18 02:40:31;;;;;;;11.18;5.32;;;-1.50;99.90;;;;;;4994639;28;20084;-78
2024/01/18 02:43:00;;;;;;;12.70;5.20;;;-1.40;99.90;;;;;;4973346;28;20112;-78
2024/01/18 02:45:26;;;;;;;9.88;4.95;;;-1.40;99.90;;;;;;5012456;28;20038;-78
2024/01/18 02:47:52;;;;;;;10.98;5.07;;;-1.50;99.90;;;;;;4990662;28;20044;-77
2024/01/18 02:50:18;;;;;;;11.13;5.43;;;-1.60;99.90;;;;;;4995487;28;20068;-77
2024/01/18 02:52:43;;;;;;;11.18;5.22;;;-2.40;99.90;;;;;;4975280;28;20042;-78
2024/01/18 02:55:09;;;;;;;11.23;5.00;;;-1.60;99.90;;;;;;4999809;28;20041;-78
2024/01/18 02:57:35;;;;;;;9.50;4.72;;;-1.70;99.90;;;;;;4978992;28;20038;-77
2024/01/18 03:00:00;;;;;;;10.52;4.80;;;-1.60;99.90;;;;;;4995580;28;20038;-78
2024/01/18 03:02:26;;;;;;;13.57;5.07;;;-1.70;99.90;;;;;;4985362;28;20129;-77
2024/01/18 03:04:55;;;;;;;12.60;4.60;;;-1.70;99.90;;;;;;4994466;28;20483;-77
2024/01/18 03:07:20;;;;;;;9.23;4.60;;;-1.70;99.90;;;;;;4997871;28;20037;-77
2024/01/18 03:09:49;;;;;;;9.88;4.43;;;-1.70;99.90;;;;;;5009632;28;20600;-76
2024/01/18 03:12:14;;;;;;;12.27;5.03;;;-0.80;99.90;;;;;;5018316;28;20034;-76
2024/01/18 03:14:40;;;;;;;10.35;5.10;;;-1.90;99.90;;;;;;4998814;28;20038;-76
2024/01/18 03:17:06;;;;;;;10.80;4.82;;;-1.90;99.90;;;;;;5013819;28;20088;-76
2024/01/18 03:19:31;;;;;;;10.38;4.75;;;-0.10;99.90;;;;;;4977650;28;20511;-76
2024/01/18 03:21:57;;;;;;;9.00;4.32;;;-1.80;99.90;;;;;;4981121;28;20402;-77
2024/01/18 03:24:22;;;;;;;10.38;4.47;;;-1.00;99.90;;;;;;5015495;28;20042;-76
2024/01/18 03:26:48;;;;;;;9.30;4.07;;;-2.00;99.90;;;;;;4980860;28;20038;-76
2024/01/18 03:29:13;;;;;;;11.13;4.82;;;-1.60;99.90;;;;;;4989384;28;20042;-76
2024/01/18 03:31:39;;;;;;;9.73;4.30;;;-1.80;99.90;;;;;;4991815;28;20034;-78
2024/01/18 03:34:04;;;;;;;13.63;5.20;;;-1.90;99.90;;;;;;5019648;28;20065;-78
2024/01/18 03:36:31;;;;;;;9.00;4.68;;;-1.90;99.90;;;;;;4977447;28;20049;-76
2024/01/18 03:38:56;;;;;;;11.20;4.15;;;-1.80;99.90;;;;;;5014168;28;20442;-76
2024/01/18 03:41:22;;;;;;;9.48;4.57;;;-2.00;99.90;;;;;;5013989;28;20446;-77
2024/01/18 03:43:48;;;;;;;8.93;4.53;;;-2.10;99.90;;;;;;5016459;28;20425;-77
2024/01/18 03:46:14;;;;;;;11.35;4.95;;;-1.10;99.90;;;;;;4997180;28;20030;-76
2024/01/18 03:48:40;;;;;;;9.13;5.18;;;-2.00;99.90;;;;;;4995738;28;20046;-77
2024/01/18 03:51:07;;;;;;;11.30;4.85;;;-1.90;99.90;;;;;;4994923;28;20038;-76
2024/01/18 03:53:32;;;;;;;15.55;4.80;;;-1.90;99.90;;;;;;5013861;28;20042;-76
2024/01/18 03:55:59;;;;;;;10.30;4.65;;;-1.90;99.90;;;;;;4992589;28;20040;-76
2024/01/18 03:58:33;;;;;;;12.05;4.90;;;-1.90;99.90;;;;;;4996310;28;20484;-76
2024/01/18 04:00:58;;;;;;;11.10;5.15;;;-2.00;99.90;;;;;;4994863;28;20121;-78
2024/01/18 04:03:25;;;;;;;10.50;5.40;;;-2.00;99.90;;;;;;5016818;28;20608;-77
2024/01/18 04:05:51;;;;;;;8.50;4.85;;;-1.80;99.90;;;;;;4981456;28;20049;-77
2024/01/18 04:08:16;;;;;;;10.63;5.53;;;-0.50;99.90;;;;;;4984016;28;20077;-76
2024/01/18 04:10:42;;;;;;;11.27;5.68;;;-2.10;99.90;;;;;;4994337;28;20034;-77
2024/01/18 04:13:07;;;;;;;10.43;5.30;;;-2.10;99.90;;;;;;4983660;28;20073;-76
2024/01/18 04:15:33;;;;;;;10.27;5.45;;;-2.10;99.90;;;;;;4999869;28;20507;-78
2024/01/18 04:17:58;;;;;;;11.45;5.18;;;-2.40;99.90;;;;;;4995906;28;20045;-78
2024/01/18 04:20:27;;;;;;;10.15;5.38;;;-2.20;99.90;;;;;;4973319;28;20281;-78
2024/01/18 04:22:56;;;;;;;11.00;5.28;;;-2.20;99.90;;;;;;5013225;28;20465;-78
2024/01/18 04:25:23;;;;;;;11.02;5.32;;;-2.10;99.90;;;;;;4987904;28;20092;-78
2024/01/18 04:27:49;;;;;;;9.13;4.60;;;-2.10;99.90;;;;;;5012514;28;20446;-78
2024/01/18 04:30:15;;;;;;;11.10;4.90;;;-2.10;99.90;;;;;;4996594;28;20085;-79
2024/01/18 04:32:40;;;;;;;10.75;5.22;;;-2.50;99.90;;;;;;5018003;28;20045;-77
2024/01/18 04:35:08;;;;;;;8.50;4.50;;;-2.30;99.90;;;;;;4978394;28;20041;-77
2024/01/18 04:37:34;;;;;;;9.32;4.53;;;-1.80;99.90;;;;;;4983718;28;20038;-76
2024/01/18 04:40:07;;;;;;;8.23;4.43;;;-2.20;99.90;;;;;;4980491;28;20091;-77
2024/01/18 04:42:34;;;;;;;10.65;5.07;;;-2.10;99.90;;;;;;5017799;28;20034;-76
2024/01/18 04:45:01;;;;;;;10.60;5.03;;;-2.20;99.90;;;;;;5009701;28;20042;-76
2024/01/18 04:47:27;;;;;;;11.77;4.72;;;-2.30;99.90;;;;;;5015063;28;20038;-76
2024/01/18 04:49:52;;;;;;;9.00;3.50;;;-2.10;99.90;;;;;;4996018;28;20042;-77
2024/01/18 04:52:20;;;;;;;8.50;3.30;;;-2.10;99.90;;;;;;4984354;28;20097;-76
2024/01/18 04:54:46;;;;;;;8.10;2.90;;;-2.30;99.90;;;;;;4980255;28;20037;-77
2024/01/18 04:57:11;;;;;;;7.47;3.13;;;-2.10;99.90;;;;;;4982519;28;20501;-76
2024/01/18 04:59:37;;;;;;;5.15;2.25;;;-2.10;99.90;;;;;;4996159;28;20045;-76
2024/01/18 05:02:03;;;;;;;6.22;2.60;;;-2.10;99.90;;;;;;5012181;28;20053;-76
2024/01/18 05:04:29;;;;;;;6.78;2.35;;;-2.10;99.90;;;;;;5006036;28;20042;-76
2024/01/18 05:06:54;;;;;;;4.00;1.92;;;-2.00;99.90;;;;;;5012881;28;20080;-76
2024/01/18 05:09:20;;;;;;;7.47;2.00;;;-2.00;99.90;;;;;;4990544;28;20088;-76
2024/01/18 05:11:47;;;;;;;4.20;2.00;;;-1.90;99.90;;;;;;4995559;28;20038;-76
2024/01/18 05:14:12;;;;;;;5.75;2.10;;;-1.20;99.90;;;;;;5004010;28;20081;-76
2024/01/18 05:16:43;;;;;;;6.00;2.00;;;-0.60;99.90;;;;;;5012846;28;20270;-78
2024/01/18 05:19:08;;;;;;;3.47;1.67;;;-1.90;99.90;;;;;;4996900;28;20164;-78
2024/01/18 05:21:34;;;;;;;5.65;1.60;;;-1.80;99.90;;;;;;5011928;28;20078;-78
2024/01/18 05:24:00;;;;;;;4.65;1.80;;;-1.70;99.90;;;;;;5011728;28;20629;-78
2024/01/18 05:26:25;;;;;;;4.05;1.80;;;-1.90;99.90;;;;;;4990585;28;20560;-78
2024/01/18 05:28:51;;;;;;;5.25;1.63;;;-1.90;99.90;;;;;;4996956;28;20041;-79
2024/01/18 05:31:25;;;;;;;3.55;1.40;;;-2.20;99.90;;;;;;4973225;28;20125;-78
2024/01/18 05:33:51;;;;;;;2.92;1.50;;;-1.90;99.90;;;;;;5013812;28;20038;-78
2024/01/18 05:36:17;;;;;;;3.55;1.48;;;-1.90;99.90;;;;;;5013115;28;20049;-79
2024/01/18 05:38:44;;;;;;;10.13;2.33;;;-1.90;99.90;;;;;;5017175;28;20048;-78
2024/01/18 05:41:11;;;;;;;5.80;1.50;;;-1.90;99.90;;;;;;4984525;28;20044;-78
2024/01/18 05:43:37;;;;;;;6.97;2.05;;;-2.00;99.90;;;;;;5014445;28;20065;-77
2024/01/18 05:46:02;;;;;;;8.40;1.85;;;-2.00;99.90;;;;;;4986187;28;20425;-77
2024/01/18 05:48:29;;;;;;;5.80;1.70;;;-1.80;99.90;;;;;;5006052;28;20129;-77
2024/01/18 05:50:54;;;;;;;5.28;1.60;;;-1.90;99.90;;;;;;4989463;28;20042;-77
2024/01/18 05:53:20;;;;;;;3.75;1.60;;;-1.20;99.90;;;;;;4996836;28;20052;-77
2024/01/18 05:55:46;;;;;;;6.70;1.38;;;-1.80;99.90;;;;;;4993710;28;20053;-78
2024/01/18 05:58:11;;;;;;;2.92;1.30;;;-1.90;99.90;;;;;;4996834;28;20037;-77
2024/01/18 06:00:37;;;;;;;4.75;1.60;;;-1.80;99.90;;;;;;4984368;28;20056;-77
2024/01/18 06:03:02;;;;;;;6.07;1.50;;;-1.80;99.90;;;;;;4992201;28;20475;-77
2024/01/18 06:05:37;;;;;;;4.63;1.30;;;-1.80;99.90;;;;;;4975235;28;20092;-77
2024/01/18 06:08:03;;;;;;;6.35;1.50;;;-1.80;99.90;;;;;;4997033;28;20395;-77
2024/01/18 06:10:28;;;;;;;2.97;1.50;;;-1.80;99.90;;;;;;4979393;28;20065;-77
2024/01/18 06:12:54;;;;;;;5.20;1.60;;;-0.80;99.90;;;;;;4996964;28;20041;-78
2024/01/18 06:15:19;;;;;;;4.93;1.50;;;-2.00;99.90;;;;;;5012314;28;20080;-77
2024/01/18 06:17:45;;;;;;;3.45;1.52;;;-2.00;99.90;;;;;;4973236;28;20511;-77
2024/01/18 06:20:14;;;;;;;6.57;2.40;;;-1.90;99.90;;;;;;4975159;28;20046;-78
2024/01/18 06:22:40;;;;;;;2.40;1.38;;;-2.00;99.90;;;;;;5005958;28;20053;-77
2024/01/18 06:25:06;;;;;;;2.83;1.50;;;-2.00;99.90;;;;;;4980474;28;20041;-77
2024/01/18 06:27:33;;;;;;;5.85;1.50;;;-2.10;99.90;;;;;;4989188;28;20042;-77
2024/01/18 06:29:59;;;;;;;5.07;1.15;;;-2.00;99.90;;;;;;5008535;28;20046;-78
2024/01/18 06:32:25;;;;;;;3.33;1.63;;;-2.20;99.90;;;;;;5006028;28;20042;-78
2024/01/18 06:34:51;;;;;;;3.95;1.63;;;-1.80;99.90;;;;;;5003499;28;20081;-77
2024/01/18 06:37:18;;;;;;;3.83;1.85;;;-2.30;99.90;;;;;;5008476;28;20046;-77
2024/01/18 06:39:44;;;;;;;5.22;1.70;;;-2.10;99.90;;;;;;5010575;28;20076;-77
2024/01/18 06:42:11;;;;;;;6.55;1.58;;;-2.10;99.90;;;;;;4985420;28;20050;-78
2024/01/18 06:44:36;;;;;;;3.45;1.50;;;-2.20;99.90;;;;;;5023645;28;20053;-78
2024/01/18 06:47:02;;;;;;;5.68;1.70;;;-2.10;99.90;;;;;;5001652;28;20406;-78
2024/01/18 06:49:28;;;;;;;7.25;1.50;;;-2.20;99.90;;;;;;4985780;28;20072;-79
2024/01/18 06:51:53;;;;;;;6.38;1.17;;;-0.70;99.90;;;;;;5008788;22;20077;-75
2024/01/18 06:54:21;;;;;;;4.63;1.38;;;-2.10;99.90;;;;;;4994054;28;20482;-74
2024/01/18 06:56:47;;;;;;;4.82;1.50;;;-2.00;99.90;;;;;;5006910;28;20061;-74
2024/01/18 06:59:14;;;;;;;5.43;1.65;;;-2.10;99.90;;;;;;4997320;28;20548;-75
2024/01/18 07:01:40;;;;;;;4.65;1.25;;;-2.10;99.90;;;;;;5010952;28;20486;-75
2024/01/18 07:04:05;;;;;;;3.30;1.33;;;-2.10;99.90;;;;;;4990284;28;20053;-74
2024/01/18 07:06:31;;;;;;;5.85;1.50;;;-2.10;99.90;;;;;;4989102;28;20038;-75
2024/01/18 07:08:57;;;;;;;6.63;1.80;;;;;;;;;;5000732;28;20048;-74
2024/01/18 07:11:23;;;;;;;4.78;1.30;;;-2.20;99.90;;;;;;4994574;28;20410;-76
2024/01/18 07:13:48;;;;;;;3.83;1.58;;;-2.20;99.90;;;;;;4991411;28;20097;-74
2024/01/18 07:16:14;;;;;;;5.25;1.70;;;-1.80;99.90;;;;;;5008046;28;20538;-75
2024/01/18 07:18:39;;;;;;;3.60;1.40;;;-2.20;99.90;;;;;;4992233;28;20109;-75
2024/01/18 07:21:05;;;;;;;5.10;1.50;;;-2.20;99.90;;;;;;4983026;28;20045;-74
2024/01/18 07:23:31;;;;;;;2.60;1.10;;;-2.30;99.90;;;;;;4985793;28;20041;-74
2024/01/18 07:25:56;;;;;;;2.00;1.38;;;-2.30;99.90;;;;;;5002911;28;20103;-74
2024/01/18 07:28:22;;;;;;;4.18;1.45;;;-2.30;99.90;;;;;;5011367;28;20430;-73
2024/01/18 07:30:48;;;;;;;3.72;1.52;;;-2.30;99.90;;;;;;4977157;28;20043;-75
2024/01/18 07:33:14;;;;;;;5.78;1.58;;;-2.30;99.90;;;;;;4990105;28;20051;-75
2024/01/18 07:35:39;;;;;;;4.70;1.50;;;-3.60;99.90;;;;;;4991213;28;20402;-75
2024/01/18 07:38:06;;;;;;;2.47;1.40;;;-2.40;99.90;;;;;;4986602;28;20400;-76
2024/01/18 07:40:32;;;;;;;4.50;1.75;;;-2.30;99.90;;;;;;4985935;28;20080;-76
2024/01/18 07:42:57;;;;;;;6.68;2.05;;;-2.20;99.90;;;;;;4985514;28;20100;-75
2024/01/18 07:45:23;;;;;;;3.55;1.70;;;-2.40;99.90;;;;;;4995694;28;20141;-76
2024/01/18 07:47:48;;;;;;;4.85;1.60;;;-2.40;99.90;;;;;;4995791;28;20045;-75
2024/01/18 07:50:14;;;;;;;4.13;2.00;;;-2.40;99.90;;;;;;4990156;28;20126;-76
2024/01/18 07:52:39;;;;;;;5.03;1.70;;;-2.40;99.90;;;;;;4983926;28;20041;-76
2024/01/18 07:55:07;;;;;;;3.20;1.55;;;-2.40;99.90;;;;;;4991423;28;20042;-75
2024/01/18 07:57:33;;;;;;;5.03;1.50;;;-2.40;99.90;;;;;;4993233;28;20406;-76
2024/01/18 07:59:59;;;;;;;5.60;1.70;;;-1.70;99.90;;;;;;5005838;28;20739;-76
2024/01/18 08:02:24;;;;;;;3.95;1.80;;;-2.50;99.90;;;;;;4992419;28;20133;-77
2024/01/18 08:04:50;;;;;;;3.40;1.73;;;-2.50;99.90;;;;;;4992129;28;20092;-76
2024/01/18 08:07:16;;;;;;;3.25;1.50;;;-2.50;99.90;;;;;;5012129;28;20046;-76
2024/01/18 08:09:41;;;;;;;7.97;1.70;;;-2.50;99.90;;;;;;4986653;28;20055;-75
2024/01/18 08:12:07;;;;;;;5.60;2.15;;;-2.40;99.90;;;;;;5008342;28;20041;-75
2024/01/18 08:14:33;;;;;;;6.53;1.85;;;-1.90;99.90;;;;;;4982481;28;20088;-76
2024/01/18 08:16:59;;;;;;;3.10;1.40;;;-2.40;99.90;;;;;;4990207;28;20042;-75
2024/01/18 08:19:25;;;;;;;3.95;1.80;;;-2.40;99.90;;;;;;5012001;28;20034;-76
2024/01/18 08:21:50;;;;;;;4.43;2.00;;;-2.40;99.90;;;;;;5009948;28;20509;-75
2024/01/18 08:24:16;;;;;;;5.85;2.65;;;-2.40;99.90;;;;;;4994728;28;20085;-76
2024/01/18 08:26:41;;;;;;;4.97;2.47;;;-2.20;99.90;;;;;;4986767;28;20111;-76
2024/01/18 08:29:07;;;;;;;4.43;2.55;;;-2.40;99.90;;;;;;4993461;28;20045;-76
2024/01/18 08:31:33;;;;;;;6.15;2.60;;;-2.20;99.90;;;;;;4990570;28;20042;-76
2024/01/18 08:33:58;;;;;;;5.20;2.10;;;-2.00;99.90;;;;;;4993996;28;20034;-79
2024/01/18 08:36:24;;;;;;;4.75;2.15;;;-2.40;99.90;;;;;;4985319;28;20038;-76
2024/01/18 08:38:50;;;;;;;7.00;2.10;;;-2.30;99.90;;;;;;4990516;28;20042;-77
2024/01/18 08:41:16;;;;;;;6.13;2.42;;;-2.30;99.90;;;;;;4992580;28;20042;-76
2024/01/18 08:43:41;;;;;;;5.88;2.35;;;-2.30;99.90;;;;;;4984280;28;20053;-76
2024/01/18 08:46:07;;;;;;;8.02;2.22;;;-2.30;99.90;;;;;;4988214;28;20042;-76
2024/01/18 08:48:36;;;;;;;6.10;1.90;;;-2.30;99.90;;;;;;4981355;28;20080;-77
2024/01/18 08:51:02;;;;;;;4.10;1.80;;;-1.90;99.90;;;;;;5008630;28;20156;-77
2024/01/18 08:53:28;;;;;;;4.90;1.88;;;-2.20;99.90;;;;;;4980975;28;20124;-77
2024/01/18 08:55:53;;;;;;;7.80;1.95;;;-2.10;99.90;;;;;;4990300;28;20092;-77
2024/01/18 08:58:19;;;;;;;3.78;1.77;;;-1.90;99.90;;;;;;4976991;28;20038;-77
2024/01/18 09:00:45;;;;;;;5.07;1.90;;;-2.10;99.90;;;;;;5006348;28;20074;-76
2024/01/18 09:03:10;;;;;;;4.22;1.90;;;-2.00;99.90;;;;;;5005863;28;20045;-77
2024/01/18 09:05:36;;;;;;;6.97;4.10;;;-2.00;99.90;;;;;;4982863;28;20037;-77
2024/01/18 09:08:02;;;;;;;12.02;5.28;;;-1.90;99.90;;;;;;4992360;28;20072;-77
2024/01/18 09:10:27;;;;;;;9.43;4.50;;;-1.80;99.90;;;;;;4982147;28;20092;-76
2024/01/18 09:12:53;;;;;;;10.93;4.10;;;-1.70;99.90;;;;;;4990042;28;20129;-76
2024/01/18 09:15:19;;;;;;;8.13;3.78;;;-1.30;99.90;;;;;;5004102;28;20095;-77
2024/01/18 09:17:44;;;;;;;4.22;2.20;;;-1.50;99.90;;;;;;5008113;28;20546;-77
2024/01/18 09:20:10;;;;;;;6.45;2.20;;;-1.50;99.90;;;;;;5001728;28;20069;-77
2024/01/18 09:22:36;;;;;;;4.38;1.60;;;-1.50;99.90;;;;;;4997427;28;20093;-77
2024/01/18 09:25:02;;;;;;;6.78;2.55;;;-1.50;99.90;;;;;;4983118;28;20076;-77
2024/01/18 09:27:28;;;;;;;7.07;2.42;;;-1.50;99.90;;;;;;4979283;28;20038;-77
2024/01/18 09:29:53;;;;;;;9.50;3.05;;;-1.40;99.90;;;;;;4982228;28;20122;-76
2024/01/18 09:32:20;;;;;;;6.75;3.00;;;-1.40;99.90;;;;;;4980803;28;20045;-77
2024/01/18 09:34:45;;;;;;;14.68;4.18;;;-1.30;99.90;;;;;;5004048;28;20046;-75
2024/01/18 09:37:11;;;;;;;15.18;4.15;;;-1.30;99.90;;;;;;5004545;28;20046;-77
2024/01/18 09:39:36;;;;;;;13.32;3.85;;;-1.10;99.90;;;;;;4992233;28;20037;-77
2024/01/18 09:42:07;;;;;;;12.05;3.33;;;-1.20;99.90;;;;;;4988647;28;20030;-77
2024/01/18 09:44:34;;;;;;;13.07;3.20;;;-1.10;99.90;;;;;;4981960;28;20046;-76
2024/01/18 09:47:03;;;;;;;13.20;4.10;;;-1.00;99.90;;;;;;4999077;28;20026;-77
2024/01/18 09:49:32;;;;;;;10.48;3.30;;;-1.00;99.90;;;;;;4978242;28;20046;-77
2024/01/18 09:51:59;;;;;;;7.00;2.42;;;-0.90;99.90;;;;;;4976578;28;20458;-78
2024/01/18 09:54:25;;;;;;;6.47;2.47;;;-0.90;99.90;;;;;;4974718;28;20128;-77
2024/01/18 09:56:54;;;;;;;7.93;2.80;;;-0.80;99.90;;;;;;4998739;28;20531;-77
2024/01/18 09:59:21;;;;;;;9.55;2.55;;;-0.80;99.90;;;;;;4977862;28;20057;-77
2024/01/18 10:01:47;;;;;;;7.30;2.25;;;-0.60;99.90;;;;;;4983458;28;20040;-77
2024/01/18 10:04:19;;;;;;;7.18;2.30;;;-0.80;99.90;;;;;;4979826;28;20042;-78
2024/01/18 10:06:44;;;;;;;8.15;2.00;;;-0.70;99.90;;;;;;5001899;28;20475;-77
2024/01/18 10:09:11;;;;;;;11.05;3.90;;;-0.60;99.90;;;;;;4980552;28;20042;-77
2024/01/18 10:11:37;;;;;;;10.07;3.20;;;-0.60;99.90;;;;;;4987252;28;20042;-77
2024/01/18 10:14:04;;;;;;;7.70;2.70;;;-0.50;99.90;;;;;;4992588;28;20046;-77
2024/01/18 10:16:32;;;;;;;5.50;2.13;;;-0.40;99.90;;;;;;4992206;28;20046;-77
2024/01/18 10:19:00;;;;;;;4.88;2.00;;;-0.40;99.90;;;;;;4992912;28;20467;-78
2024/01/18 10:21:26;;;;;;;8.85;2.40;;;-0.30;99.90;;;;;;4998070;28;20042;-77
2024/01/18 10:23:53;;;;;;;7.47;2.90;;;-0.30;99.90;;;;;;4993682;28;20426;-77
2024/01/18 10:26:20;;;;;;;7.93;3.45;;;-0.20;99.90;;;;;;4991602;28;20042;-78
2024/01/18 10:28:46;;;;;;;7.20;2.60;;;-0.10;99.90;;;;;;4989964;28;20555;-78
2024/01/18 10:31:12;;;;;;;10.45;2.60;;;0.00;99.90;;;;;;4985625;28;20136;-78
2024/01/18 10:33:37;;;;;;;11.10;2.63;;;0.20;99.90;;;;;;4991194;28;20046;-77
2024/01/18 10:36:03;;;;;;;13.02;4.18;;;0.00;99.90;;;;;;4992959;28;20485;-78
2024/01/18 10:38:39;;;;;;;9.00;4.22;;;0.10;99.90;;;;;;4988535;28;20042;-77
2024/01/18 10:41:05;;;;;;;10.10;2.58;;;0.20;99.90;;;;;;4982917;28;20046;-79
2024/01/18 10:43:32;;;;;;;6.63;2.10;;;0.20;99.90;;;;;;4981443;28;20066;-78
2024/01/18 10:45:58;;;;;;;7.68;2.17;;;0.30;99.90;;;;;;5004206;28;20677;-77
2024/01/18 10:48:29;;;;;;;6.38;2.17;;;0.40;99.90;;;;;;4986286;28;20034;-77
2024/01/18 10:50:55;;;;;;;6.32;2.22;;;0.40;99.90;;;;;;4985460;28;20038;-77
2024/01/18 10:53:23;;;;;;;9.27;4.57;;;0.50;99.90;;;;;;5004225;28;20034;-75
2024/01/18 10:55:49;;;;;;;14.02;9.00;;;0.50;99.90;;;;;;4998791;28;20112;-77
2024/01/18 10:58:15;;;;;;;28.67;18.77;;;0.60;99.90;;;;;;4992247;28;20070;-78
2024/01/18 11:00:40;;;;;;;11.93;6.72;;;0.60;99.90;;;;;;4990053;28;20474;-76
2024/01/18 11:03:06;;;;;;;11.80;4.22;;;0.70;99.90;;;;;;4994215;28;20045;-77
2024/01/18 11:05:33;;;;;;;8.10;2.30;;;0.70;99.90;;;;;;4985775;28;20030;-78
2024/01/18 11:07:59;;;;;;;18.90;11.07;;;0.80;99.90;;;;;;4984946;28;20042;-77
2024/01/18 11:10:25;;;;;;;9.07;5.32;;;0.90;99.90;;;;;;4988549;28;20046;-79
2024/01/18 11:12:52;;;;;;;13.05;4.78;;;0.90;99.90;;;;;;4980203;28;20044;-78
2024/01/18 11:15:18;;;;;;;8.65;4.55;;;0.90;99.90;;;;;;4984486;28;20042;-78
2024/01/18 11:17:51;;;;;;;12.15;4.03;;;0.90;99.90;;;;;;4987809;28;20046;-78
2024/01/18 11:20:17;;;;;;;5.15;2.38;;;1.00;99.90;;;;;;4985827;28;20067;-78
2024/01/18 11:22:43;;;;;;;10.75;5.40;;;1.10;99.90;;;;;;4988283;28;20052;-77
2024/01/18 11:25:10;;;;;;;7.93;3.40;;;1.10;99.90;;;;;;4985162;28;20487;-78
2024/01/18 11:27:40;;;;;;;7.00;2.30;;;1.20;99.90;;;;;;4982405;28;20054;-78
2024/01/18 11:30:11;;;;;;;6.45;2.42;;;1.20;99.90;;;;;;5009593;28;20065;-78
2024/01/18 11:32:38;;;;;;;13.55;5.25;;;1.30;99.90;;;;;;4984152;28;20042;-78
2024/01/18 11:35:08;;;;;;;5.75;2.53;;;1.30;99.90;;;;;;4985904;28;20060;-78
2024/01/18 11:37:34;;;;;;;7.13;2.22;;;1.30;99.90;;;;;;4988485;28;20128;-78
2024/01/18 11:40:00;;;;;;;5.50;1.80;;;1.40;99.90;;;;;;4995677;28;20116;-78
2024/01/18 11:42:33;;;;;;;6.28;2.20;;;1.50;99.90;;;;;;4995936;28;20479;-78
2024/01/18 11:45:04;;;;;;;7.30;2.08;;;1.60;99.90;;;;;;4995769;28;20553;-78
2024/01/18 11:47:32;;;;;;;7.30;1.90;;;1.60;99.90;;;;;;5012404;28;20088;-78
2024/01/18 11:50:01;;;;;;;5.55;1.40;;;1.80;99.90;;;;;;4999277;28;20495;-77
2024/01/18 11:52:30;;;;;;;4.78;2.05;;;1.90;99.90;;;;;;4989642;28;20042;-77
2024/01/18 11:54:56;;;;;;;6.80;2.72;;;1.90;99.90;;;;;;4995614;28;20065;-77
2024/01/18 11:57:23;;;;;;;8.57;3.28;;;2.00;99.90;;;;;;4988471;28;20494;-75
2024/01/18 11:59:49;;;;;;;9.15;4.28;;;2.10;99.90;;;;;;4985887;28;20446;-77
2024/01/18 12:02:15;;;;;;;5.13;2.40;;;2.30;99.90;;;;;;4987955;28;20041;-77
2024/01/18 12:04:41;;;;;;;8.77;3.05;;;2.40;99.90;;;;;;4984903;28;20092;-77
2024/01/18 12:07:07;;;;;;;8.35;6.72;;;2.40;99.90;;;;;;4995064;28;20045;-77
2024/01/18 12:09:34;;;;;;;12.95;4.63;;;2.40;99.90;;;;;;4997194;28;20049;-76
2024/01/18 12:12:03;;;;;;;8.90;6.57;;;2.40;99.90;;;;;;4984244;28;20406;-77
2024/01/18 12:14:28;;;;;;;7.50;2.30;;;2.50;99.90;;;;;;4983537;28;20107;-76
2024/01/18 12:16:54;;;;;;;6.90;3.47;;;2.50;99.90;;;;;;4991955;28;20507;-77
2024/01/18 12:19:33;;;;;;;9.43;2.50;;;2.50;99.90;;;;;;4992103;28;20049;-77
2024/01/18 12:22:12;;;;;;;4.32;1.42;;;2.50;99.90;;;;;;5011662;28;20041;-77
2024/01/18 12:24:39;;;;;;;2.97;1.02;;;2.60;99.90;;;;;;4988699;28;20053;-77
2024/01/18 12:27:05;;;;;;;2.75;1.00;;;2.70;99.90;;;;;;4986264;28;20062;-77
2024/01/18 12:29:33;;;;;;;2.85;0.82;;;2.80;99.90;;;;;;4981681;28;20068;-77
2024/01/18 12:31:59;;;;;;;3.80;0.60;;;2.80;99.90;;;;;;5003611;28;20038;-77
2024/01/18 12:34:27;;;;;;;1.70;0.52;;;2.70;99.90;;;;;;4979501;28;20046;-78
2024/01/18 12:36:52;;;;;;;3.03;1.25;;;2.60;99.90;;;;;;4988370;28;20486;-77
2024/01/18 12:39:19;;;;;;;3.53;1.70;;;2.50;99.90;;;;;;4968884;28;20031;-77
2024/01/18 12:41:45;;;;;;;9.02;6.65;;;2.40;99.90;;;;;;5009378;28;20368;-76